sensor_id;sensor_type;location;lat;lon;timestamp;P1;durP1;ratioP1;P2;durP2;ratioP2
42906;SDS011;28552;51.146;6.576;2022-08-01T00:00:41;4.13;;;1.70;;
42906;SDS011;28552;51.146;6.576;2022-08-01T00:03:42;4.63;;;1.80;;
42906;SDS011;28552;51.146;6.576;2022-08-01T00:06:42;4.25;;;1.83;;
42906;SDS011;28552;51.146;6.576;2022-08-01T00:09:43;4.68;;;1.50;;
42906;SDS011;28552;51.146;6.576;2022-08-01T00:12:43;4.93;;;1.80;;
42906;SDS011;28552;51.146;6.576;2022-08-01T00:15:44;3.70;;;1.40;;
42906;SDS011;28552;51.146;6.576;2022-08-01T00:18:45;5.43;;;1.75;;
42906;SDS011;28552;51.146;6.576;2022-08-01T00:21:46;3.72;;;1.60;;
42906;SDS011;28552;51.146;6.576;2022-08-01T00:24:46;3.28;;;1.50;;
42906;SDS011;28552;51.146;6.576;2022-08-01T00:27:47;3.40;;;1.42;;
42906;SDS011;28552;51.146;6.576;2022-08-01T00:30:47;3.67;;;1.58;;
42906;SDS011;28552;51.146;6.576;2022-08-01T00:33:48;5.20;;;1.80;;
42906;SDS011;28552;51.146;6.576;2022-08-01T00:36:48;3.15;;;1.50;;
42906;SDS011;28552;51.146;6.576;2022-08-01T00:39:49;2.63;;;1.30;;
42906;SDS011;28552;51.146;6.576;2022-08-01T00:42:49;3.75;;;1.70;;
42906;SDS011;28552;51.146;6.576;2022-08-01T00:45:50;3.78;;;1.50;;
42906;SDS011;28552;51.146;6.576;2022-08-01T00:48:50;4.65;;;1.65;;
42906;SDS011;28552;51.146;6.576;2022-08-01T00:51:51;4.10;;;1.70;;
42906;SDS011;28552;51.146;6.576;2022-08-01T00:54:52;3.55;;;1.50;;
42906;SDS011;28552;51.146;6.576;2022-08-01T00:57:52;3.95;;;1.73;;
42906;SDS011;28552;51.146;6.576;2022-08-01T01:00:53;4.22;;;1.73;;
42906;SDS011;28552;51.146;6.576;2022-08-01T01:03:54;3.72;;;1.50;;
42906;SDS011;28552;51.146;6.576;2022-08-01T01:06:57;4.25;;;1.52;;
42906;SDS011;28552;51.146;6.576;2022-08-01T01:16:35;3.45;;;1.60;;
42906;SDS011;28552;51.146;6.576;2022-08-01T01:19:40;4.20;;;1.52;;
42906;SDS011;28552;51.146;6.576;2022-08-01T01:23:05;5.80;;;1.85;;
42906;SDS011;28552;51.146;6.576;2022-08-01T01:29:38;3.28;;;1.58;;
42906;SDS011;28552;51.146;6.576;2022-08-01T01:32:43;5.70;;;1.70;;
42906;SDS011;28552;51.146;6.576;2022-08-01T01:35:51;3.33;;;1.55;;
42906;SDS011;28552;51.146;6.576;2022-08-01T01:38:53;4.85;;;1.55;;
42906;SDS011;28552;51.146;6.576;2022-08-01T01:41:55;4.38;;;1.65;;
42906;SDS011;28552;51.146;6.576;2022-08-01T01:44:57;5.45;;;1.77;;
42906;SDS011;28552;51.146;6.576;2022-08-01T01:48:00;5.07;;;1.90;;
42906;SDS011;28552;51.146;6.576;2022-08-01T01:51:01;5.40;;;1.85;;
42906;SDS011;28552;51.146;6.576;2022-08-01T01:54:03;4.00;;;1.50;;
42906;SDS011;28552;51.146;6.576;2022-08-01T01:57:06;4.40;;;1.83;;
42906;SDS011;28552;51.146;6.576;2022-08-01T02:00:09;3.17;;;1.52;;
42906;SDS011;28552;51.146;6.576;2022-08-01T02:03:11;4.00;;;1.52;;
42906;SDS011;28552;51.146;6.576;2022-08-01T02:06:14;3.53;;;1.48;;
42906;SDS011;28552;51.146;6.576;2022-08-01T02:09:16;3.22;;;1.30;;
42906;SDS011;28552;51.146;6.576;2022-08-01T02:12:19;3.60;;;1.50;;
42906;SDS011;28552;51.146;6.576;2022-08-01T02:15:21;4.75;;;1.75;;
42906;SDS011;28552;51.146;6.576;2022-08-01T02:18:24;2.72;;;1.40;;
42906;SDS011;28552;51.146;6.576;2022-08-01T02:21:28;5.45;;;2.00;;
42906;SDS011;28552;51.146;6.576;2022-08-01T02:24:42;4.18;;;1.50;;
42906;SDS011;28552;51.146;6.576;2022-08-01T02:27:54;4.72;;;1.83;;
42906;SDS011;28552;51.146;6.576;2022-08-01T02:30:59;6.30;;;1.67;;
42906;SDS011;28552;51.146;6.576;2022-08-01T02:34:04;3.90;;;1.42;;
42906;SDS011;28552;51.146;6.576;2022-08-01T02:37:09;4.07;;;1.67;;
42906;SDS011;28552;51.146;6.576;2022-08-01T02:40:10;4.20;;;1.90;;
42906;SDS011;28552;51.146;6.576;2022-08-01T02:43:12;4.70;;;1.77;;
42906;SDS011;28552;51.146;6.576;2022-08-01T02:46:21;5.07;;;2.20;;
42906;SDS011;28552;51.146;6.576;2022-08-01T02:49:25;4.55;;;1.80;;
42906;SDS011;28552;51.146;6.576;2022-08-01T02:52:29;5.38;;;2.10;;
42906;SDS011;28552;51.146;6.576;2022-08-01T02:55:32;6.22;;;1.85;;
42906;SDS011;28552;51.146;6.576;2022-08-01T02:58:35;4.75;;;2.00;;
42906;SDS011;28552;51.146;6.576;2022-08-01T03:01:37;5.72;;;2.08;;
42906;SDS011;28552;51.146;6.576;2022-08-01T03:04:39;6.00;;;2.17;;
42906;SDS011;28552;51.146;6.576;2022-08-01T03:07:41;5.45;;;1.92;;
42906;SDS011;28552;51.146;6.576;2022-08-01T03:10:44;4.93;;;2.35;;
42906;SDS011;28552;51.146;6.576;2022-08-01T03:13:46;7.15;;;2.55;;
42906;SDS011;28552;51.146;6.576;2022-08-01T03:16:48;4.90;;;2.53;;
42906;SDS011;28552;51.146;6.576;2022-08-01T03:19:51;8.65;;;2.72;;
42906;SDS011;28552;51.146;6.576;2022-08-01T03:22:52;4.32;;;2.13;;
42906;SDS011;28552;51.146;6.576;2022-08-01T03:25:54;6.15;;;3.10;;
42906;SDS011;28552;51.146;6.576;2022-08-01T03:28:58;6.18;;;3.25;;
42906;SDS011;28552;51.146;6.576;2022-08-01T03:32:02;6.15;;;2.95;;
42906;SDS011;28552;51.146;6.576;2022-08-01T03:35:03;6.97;;;3.22;;
42906;SDS011;28552;51.146;6.576;2022-08-01T03:38:05;6.43;;;2.72;;
42906;SDS011;28552;51.146;6.576;2022-08-01T03:41:11;7.82;;;3.08;;
42906;SDS011;28552;51.146;6.576;2022-08-01T03:44:16;8.63;;;3.85;;
42906;SDS011;28552;51.146;6.576;2022-08-01T03:47:22;7.80;;;3.25;;
42906;SDS011;28552;51.146;6.576;2022-08-01T03:50:29;8.75;;;3.25;;
42906;SDS011;28552;51.146;6.576;2022-08-01T03:53:33;11.82;;;3.30;;
42906;SDS011;28552;51.146;6.576;2022-08-01T03:56:36;11.82;;;4.28;;
42906;SDS011;28552;51.146;6.576;2022-08-01T03:59:38;8.35;;;3.60;;
42906;SDS011;28552;51.146;6.576;2022-08-01T04:02:40;8.88;;;3.22;;
42906;SDS011;28552;51.146;6.576;2022-08-01T04:05:42;11.15;;;4.32;;
42906;SDS011;28552;51.146;6.576;2022-08-01T04:08:43;7.28;;;3.25;;
42906;SDS011;28552;51.146;6.576;2022-08-01T04:11:55;7.30;;;2.92;;
42906;SDS011;28552;51.146;6.576;2022-08-01T04:14:55;7.53;;;3.55;;
42906;SDS011;28552;51.146;6.576;2022-08-01T04:17:56;10.57;;;3.30;;
42906;SDS011;28552;51.146;6.576;2022-08-01T04:20:56;12.25;;;3.83;;
42906;SDS011;28552;51.146;6.576;2022-08-01T04:23:58;9.02;;;3.45;;
42906;SDS011;28552;51.146;6.576;2022-08-01T04:27:05;7.18;;;3.22;;
42906;SDS011;28552;51.146;6.576;2022-08-01T04:30:10;10.70;;;3.90;;
42906;SDS011;28552;51.146;6.576;2022-08-01T04:33:13;8.32;;;3.60;;
42906;SDS011;28552;51.146;6.576;2022-08-01T04:36:18;9.20;;;3.65;;
42906;SDS011;28552;51.146;6.576;2022-08-01T04:39:23;11.63;;;4.03;;
42906;SDS011;28552;51.146;6.576;2022-08-01T04:42:27;9.38;;;4.03;;
42906;SDS011;28552;51.146;6.576;2022-08-01T04:45:28;9.45;;;4.07;;
42906;SDS011;28552;51.146;6.576;2022-08-01T04:48:28;6.80;;;3.55;;
42906;SDS011;28552;51.146;6.576;2022-08-01T04:51:31;9.52;;;3.95;;
42906;SDS011;28552;51.146;6.576;2022-08-01T04:54:33;9.27;;;4.25;;
42906;SDS011;28552;51.146;6.576;2022-08-01T04:57:37;9.13;;;4.28;;
42906;SDS011;28552;51.146;6.576;2022-08-01T05:00:40;9.15;;;4.43;;
42906;SDS011;28552;51.146;6.576;2022-08-01T05:03:41;9.90;;;4.53;;
42906;SDS011;28552;51.146;6.576;2022-08-01T05:06:42;13.75;;;4.97;;
42906;SDS011;28552;51.146;6.576;2022-08-01T05:09:42;9.85;;;4.30;;
42906;SDS011;28552;51.146;6.576;2022-08-01T05:12:45;9.60;;;4.25;;
42906;SDS011;28552;51.146;6.576;2022-08-01T05:15:46;9.50;;;4.40;;
42906;SDS011;28552;51.146;6.576;2022-08-01T05:18:47;9.48;;;4.93;;
42906;SDS011;28552;51.146;6.576;2022-08-01T05:21:47;10.55;;;4.20;;
42906;SDS011;28552;51.146;6.576;2022-08-01T05:24:48;10.02;;;3.92;;
42906;SDS011;28552;51.146;6.576;2022-08-01T05:27:49;12.43;;;4.30;;
42906;SDS011;28552;51.146;6.576;2022-08-01T05:30:49;10.77;;;4.90;;
42906;SDS011;28552;51.146;6.576;2022-08-01T05:33:50;9.32;;;4.20;;
42906;SDS011;28552;51.146;6.576;2022-08-01T05:36:51;11.23;;;4.63;;
42906;SDS011;28552;51.146;6.576;2022-08-01T05:39:51;10.95;;;4.75;;
42906;SDS011;28552;51.146;6.576;2022-08-01T05:42:52;12.60;;;5.47;;
42906;SDS011;28552;51.146;6.576;2022-08-01T05:45:52;14.35;;;4.70;;
42906;SDS011;28552;51.146;6.576;2022-08-01T05:48:53;12.90;;;5.53;;
42906;SDS011;28552;51.146;6.576;2022-08-01T05:51:54;11.00;;;5.03;;
42906;SDS011;28552;51.146;6.576;2022-08-01T05:54:55;12.40;;;5.35;;
42906;SDS011;28552;51.146;6.576;2022-08-01T05:57:55;9.90;;;4.90;;
42906;SDS011;28552;51.146;6.576;2022-08-01T06:00:56;13.07;;;5.28;;
42906;SDS011;28552;51.146;6.576;2022-08-01T06:03:56;12.50;;;5.60;;
42906;SDS011;28552;51.146;6.576;2022-08-01T06:06:57;13.30;;;6.00;;
42906;SDS011;28552;51.146;6.576;2022-08-01T06:09:57;10.90;;;5.18;;
42906;SDS011;28552;51.146;6.576;2022-08-01T06:12:58;12.25;;;5.45;;
42906;SDS011;28552;51.146;6.576;2022-08-01T06:16:02;12.70;;;5.70;;
42906;SDS011;28552;51.146;6.576;2022-08-01T06:19:03;11.75;;;5.50;;
42906;SDS011;28552;51.146;6.576;2022-08-01T06:22:04;16.30;;;6.53;;
42906;SDS011;28552;51.146;6.576;2022-08-01T06:25:04;12.88;;;5.75;;
42906;SDS011;28552;51.146;6.576;2022-08-01T06:28:06;13.35;;;5.18;;
42906;SDS011;28552;51.146;6.576;2022-08-01T06:31:06;11.63;;;4.55;;
42906;SDS011;28552;51.146;6.576;2022-08-01T06:34:07;14.60;;;5.80;;
42906;SDS011;28552;51.146;6.576;2022-08-01T06:37:07;12.57;;;5.68;;
42906;SDS011;28552;51.146;6.576;2022-08-01T06:40:09;12.27;;;5.63;;
42906;SDS011;28552;51.146;6.576;2022-08-01T06:43:11;10.63;;;5.30;;
42906;SDS011;28552;51.146;6.576;2022-08-01T06:46:11;11.55;;;5.78;;
42906;SDS011;28552;51.146;6.576;2022-08-01T06:49:12;11.75;;;5.05;;
42906;SDS011;28552;51.146;6.576;2022-08-01T06:52:12;10.60;;;4.75;;
42906;SDS011;28552;51.146;6.576;2022-08-01T06:55:13;12.18;;;5.28;;
42906;SDS011;28552;51.146;6.576;2022-08-01T06:58:14;10.93;;;4.68;;
42906;SDS011;28552;51.146;6.576;2022-08-01T07:01:14;11.65;;;4.68;;
42906;SDS011;28552;51.146;6.576;2022-08-01T07:04:15;10.10;;;4.50;;
42906;SDS011;28552;51.146;6.576;2022-08-01T07:07:16;12.27;;;5.13;;
42906;SDS011;28552;51.146;6.576;2022-08-01T07:10:16;11.93;;;5.40;;
42906;SDS011;28552;51.146;6.576;2022-08-01T07:13:17;9.90;;;4.70;;
42906;SDS011;28552;51.146;6.576;2022-08-01T07:16:21;8.80;;;4.55;;
42906;SDS011;28552;51.146;6.576;2022-08-01T07:19:22;10.18;;;4.80;;
42906;SDS011;28552;51.146;6.576;2022-08-01T07:22:22;12.25;;;4.95;;
42906;SDS011;28552;51.146;6.576;2022-08-01T07:25:23;11.10;;;5.15;;
42906;SDS011;28552;51.146;6.576;2022-08-01T07:28:23;10.43;;;4.72;;
42906;SDS011;28552;51.146;6.576;2022-08-01T07:31:24;12.65;;;5.47;;
42906;SDS011;28552;51.146;6.576;2022-08-01T07:34:25;15.88;;;6.85;;
42906;SDS011;28552;51.146;6.576;2022-08-01T07:37:25;12.43;;;6.72;;
42906;SDS011;28552;51.146;6.576;2022-08-01T07:40:26;11.70;;;4.55;;
42906;SDS011;28552;51.146;6.576;2022-08-01T07:43:27;8.75;;;3.90;;
42906;SDS011;28552;51.146;6.576;2022-08-01T07:46:27;8.65;;;4.10;;
42906;SDS011;28552;51.146;6.576;2022-08-01T07:49:30;7.93;;;3.20;;
42906;SDS011;28552;51.146;6.576;2022-08-01T07:52:30;7.95;;;3.38;;
42906;SDS011;28552;51.146;6.576;2022-08-01T07:55:31;6.90;;;3.05;;
42906;SDS011;28552;51.146;6.576;2022-08-01T07:58:33;8.43;;;3.35;;
42906;SDS011;28552;51.146;6.576;2022-08-01T08:01:33;6.43;;;2.85;;
42906;SDS011;28552;51.146;6.576;2022-08-01T08:04:34;8.15;;;3.28;;
42906;SDS011;28552;51.146;6.576;2022-08-01T08:07:34;5.80;;;2.38;;
42906;SDS011;28552;51.146;6.576;2022-08-01T08:10:35;5.45;;;2.47;;
42906;SDS011;28552;51.146;6.576;2022-08-01T08:13:36;7.15;;;2.42;;
42906;SDS011;28552;51.146;6.576;2022-08-01T08:16:36;5.40;;;2.58;;
42906;SDS011;28552;51.146;6.576;2022-08-01T08:19:37;5.13;;;2.30;;
42906;SDS011;28552;51.146;6.576;2022-08-01T08:22:39;5.75;;;1.88;;
42906;SDS011;28552;51.146;6.576;2022-08-01T08:25:40;8.23;;;2.60;;
42906;SDS011;28552;51.146;6.576;2022-08-01T08:28:40;4.93;;;2.38;;
42906;SDS011;28552;51.146;6.576;2022-08-01T08:31:41;5.30;;;2.40;;
42906;SDS011;28552;51.146;6.576;2022-08-01T08:34:41;6.88;;;2.97;;
42906;SDS011;28552;51.146;6.576;2022-08-01T08:37:42;5.18;;;2.17;;
42906;SDS011;28552;51.146;6.576;2022-08-01T08:40:43;5.70;;;2.40;;
42906;SDS011;28552;51.146;6.576;2022-08-01T08:43:44;6.13;;;2.83;;
42906;SDS011;28552;51.146;6.576;2022-08-01T08:46:47;5.55;;;2.42;;
42906;SDS011;28552;51.146;6.576;2022-08-01T08:49:53;6.05;;;2.42;;
42906;SDS011;28552;51.146;6.576;2022-08-01T08:52:55;8.18;;;2.60;;
42906;SDS011;28552;51.146;6.576;2022-08-01T08:55:59;5.70;;;2.17;;
42906;SDS011;28552;51.146;6.576;2022-08-01T08:59:00;5.03;;;2.17;;
42906;SDS011;28552;51.146;6.576;2022-08-01T09:02:02;6.38;;;2.85;;
42906;SDS011;28552;51.146;6.576;2022-08-01T09:05:04;6.07;;;2.60;;
42906;SDS011;28552;51.146;6.576;2022-08-01T09:08:07;5.40;;;2.55;;
42906;SDS011;28552;51.146;6.576;2022-08-01T09:11:08;6.72;;;2.45;;
42906;SDS011;28552;51.146;6.576;2022-08-01T09:17:11;7.10;;;2.70;;
42906;SDS011;28552;51.146;6.576;2022-08-01T09:20:22;6.07;;;2.45;;
42906;SDS011;28552;51.146;6.576;2022-08-01T09:23:31;4.70;;;2.42;;
42906;SDS011;28552;51.146;6.576;2022-08-01T09:26:34;7.32;;;2.53;;
42906;SDS011;28552;51.146;6.576;2022-08-01T09:29:35;5.00;;;2.47;;
42906;SDS011;28552;51.146;6.576;2022-08-01T09:32:36;7.40;;;2.30;;
42906;SDS011;28552;51.146;6.576;2022-08-01T09:35:55;5.20;;;2.70;;
42906;SDS011;28552;51.146;6.576;2022-08-01T09:38:57;4.93;;;1.95;;
42906;SDS011;28552;51.146;6.576;2022-08-01T09:42:21;4.97;;;2.30;;
42906;SDS011;28552;51.146;6.576;2022-08-01T09:45:32;4.88;;;2.22;;
42906;SDS011;28552;51.146;6.576;2022-08-01T09:48:33;4.50;;;2.10;;
42906;SDS011;28552;51.146;6.576;2022-08-01T09:51:34;6.55;;;2.30;;
42906;SDS011;28552;51.146;6.576;2022-08-01T09:54:37;4.28;;;1.98;;
42906;SDS011;28552;51.146;6.576;2022-08-01T09:57:38;5.25;;;2.35;;
42906;SDS011;28552;51.146;6.576;2022-08-01T10:00:39;4.18;;;1.83;;
42906;SDS011;28552;51.146;6.576;2022-08-01T10:03:40;4.88;;;2.15;;
42906;SDS011;28552;51.146;6.576;2022-08-01T10:06:41;5.43;;;2.05;;
42906;SDS011;28552;51.146;6.576;2022-08-01T10:09:44;3.85;;;1.77;;
42906;SDS011;28552;51.146;6.576;2022-08-01T10:12:45;5.20;;;1.90;;
42906;SDS011;28552;51.146;6.576;2022-08-01T10:15:47;4.28;;;1.70;;
42906;SDS011;28552;51.146;6.576;2022-08-01T10:18:48;5.80;;;2.10;;
42906;SDS011;28552;51.146;6.576;2022-08-01T10:21:50;4.28;;;1.70;;
42906;SDS011;28552;51.146;6.576;2022-08-01T10:24:55;3.85;;;1.73;;
42906;SDS011;28552;51.146;6.576;2022-08-01T10:27:57;4.65;;;2.20;;
42906;SDS011;28552;51.146;6.576;2022-08-01T10:30:59;2.60;;;1.17;;
42906;SDS011;28552;51.146;6.576;2022-08-01T10:34:01;3.55;;;1.63;;
42906;SDS011;28552;51.146;6.576;2022-08-01T10:37:03;2.70;;;1.05;;
42906;SDS011;28552;51.146;6.576;2022-08-01T10:40:05;3.22;;;1.45;;
42906;SDS011;28552;51.146;6.576;2022-08-01T10:43:07;3.70;;;1.60;;
42906;SDS011;28552;51.146;6.576;2022-08-01T10:46:09;4.43;;;1.40;;
42906;SDS011;28552;51.146;6.576;2022-08-01T10:49:10;2.85;;;1.38;;
42906;SDS011;28552;51.146;6.576;2022-08-01T10:52:14;2.67;;;1.30;;
42906;SDS011;28552;51.146;6.576;2022-08-01T10:55:16;4.50;;;1.33;;
42906;SDS011;28552;51.146;6.576;2022-08-01T10:58:20;3.35;;;1.33;;
42906;SDS011;28552;51.146;6.576;2022-08-01T11:01:25;3.17;;;1.17;;
42906;SDS011;28552;51.146;6.576;2022-08-01T11:04:32;2.58;;;1.00;;
42906;SDS011;28552;51.146;6.576;2022-08-01T11:07:52;2.35;;;1.02;;
42906;SDS011;28552;51.146;6.576;2022-08-01T11:10:59;2.55;;;1.00;;
42906;SDS011;28552;51.146;6.576;2022-08-01T11:14:03;2.53;;;1.00;;
42906;SDS011;28552;51.146;6.576;2022-08-01T11:20:54;3.38;;;1.30;;
42906;SDS011;28552;51.146;6.576;2022-08-01T11:23:57;2.45;;;1.10;;
42906;SDS011;28552;51.146;6.576;2022-08-01T11:30:28;1.58;;;0.90;;
42906;SDS011;28552;51.146;6.576;2022-08-01T11:36:46;3.13;;;0.68;;
42906;SDS011;28552;51.146;6.576;2022-08-01T11:40:13;1.20;;;0.70;;
42906;SDS011;28552;51.146;6.576;2022-08-01T11:43:19;1.85;;;0.70;;
42906;SDS011;28552;51.146;6.576;2022-08-01T11:46:19;2.35;;;0.70;;
42906;SDS011;28552;51.146;6.576;2022-08-01T11:49:44;2.03;;;0.90;;
42906;SDS011;28552;51.146;6.576;2022-08-01T11:52:47;2.03;;;0.95;;
42906;SDS011;28552;51.146;6.576;2022-08-01T11:55:59;1.95;;;0.70;;
42906;SDS011;28552;51.146;6.576;2022-08-01T11:59:00;1.85;;;0.80;;
42906;SDS011;28552;51.146;6.576;2022-08-01T12:02:01;0.88;;;0.60;;
42906;SDS011;28552;51.146;6.576;2022-08-01T12:05:03;2.45;;;0.80;;
42906;SDS011;28552;51.146;6.576;2022-08-01T12:08:08;2.60;;;0.98;;
42906;SDS011;28552;51.146;6.576;2022-08-01T12:11:09;2.45;;;0.82;;
42906;SDS011;28552;51.146;6.576;2022-08-01T12:14:09;1.60;;;0.70;;
42906;SDS011;28552;51.146;6.576;2022-08-01T12:17:15;1.65;;;0.70;;
42906;SDS011;28552;51.146;6.576;2022-08-01T12:20:21;2.10;;;0.80;;
42906;SDS011;28552;51.146;6.576;2022-08-01T12:23:22;7.20;;;1.00;;
42906;SDS011;28552;51.146;6.576;2022-08-01T12:26:37;1.77;;;0.80;;
42906;SDS011;28552;51.146;6.576;2022-08-01T12:29:40;1.17;;;0.75;;
42906;SDS011;28552;51.146;6.576;2022-08-01T12:32:44;2.28;;;1.00;;
42906;SDS011;28552;51.146;6.576;2022-08-01T12:35:46;3.67;;;0.65;;
42906;SDS011;28552;51.146;6.576;2022-08-01T12:38:52;1.55;;;0.60;;
42906;SDS011;28552;51.146;6.576;2022-08-01T12:41:52;1.13;;;0.63;;
42906;SDS011;28552;51.146;6.576;2022-08-01T12:44:53;1.50;;;0.60;;
42906;SDS011;28552;51.146;6.576;2022-08-01T12:47:55;1.23;;;0.70;;
42906;SDS011;28552;51.146;6.576;2022-08-01T12:50:58;1.38;;;0.75;;
42906;SDS011;28552;51.146;6.576;2022-08-01T12:54:02;1.20;;;0.70;;
42906;SDS011;28552;51.146;6.576;2022-08-01T12:57:04;1.55;;;0.70;;
42906;SDS011;28552;51.146;6.576;2022-08-01T13:00:06;2.05;;;0.90;;
42906;SDS011;28552;51.146;6.576;2022-08-01T13:03:10;1.65;;;0.73;;
42906;SDS011;28552;51.146;6.576;2022-08-01T13:06:19;1.88;;;0.75;;
42906;SDS011;28552;51.146;6.576;2022-08-01T13:09:19;2.00;;;0.90;;
42906;SDS011;28552;51.146;6.576;2022-08-01T13:12:20;1.67;;;0.88;;
42906;SDS011;28552;51.146;6.576;2022-08-01T13:15:22;2.97;;;0.75;;
42906;SDS011;28552;51.146;6.576;2022-08-01T13:18:26;2.40;;;0.90;;
42906;SDS011;28552;51.146;6.576;2022-08-01T13:21:29;1.73;;;0.82;;
42906;SDS011;28552;51.146;6.576;2022-08-01T13:24:31;4.28;;;1.00;;
42906;SDS011;28552;51.146;6.576;2022-08-01T13:27:32;2.65;;;1.02;;
42906;SDS011;28552;51.146;6.576;2022-08-01T13:30:32;2.42;;;0.82;;
42906;SDS011;28552;51.146;6.576;2022-08-01T13:33:41;2.08;;;0.73;;
42906;SDS011;28552;51.146;6.576;2022-08-01T13:36:43;2.58;;;0.93;;
42906;SDS011;28552;51.146;6.576;2022-08-01T13:39:44;3.70;;;0.98;;
42906;SDS011;28552;51.146;6.576;2022-08-01T13:42:45;2.58;;;1.20;;
42906;SDS011;28552;51.146;6.576;2022-08-01T13:45:46;3.22;;;1.10;;
42906;SDS011;28552;51.146;6.576;2022-08-01T13:48:46;2.72;;;1.13;;
42906;SDS011;28552;51.146;6.576;2022-08-01T13:51:47;3.45;;;1.30;;
42906;SDS011;28552;51.146;6.576;2022-08-01T13:54:49;2.13;;;0.95;;
42906;SDS011;28552;51.146;6.576;2022-08-01T13:57:50;4.32;;;1.30;;
42906;SDS011;28552;51.146;6.576;2022-08-01T14:00:51;2.67;;;0.80;;
42906;SDS011;28552;51.146;6.576;2022-08-01T14:03:51;3.05;;;1.10;;
42906;SDS011;28552;51.146;6.576;2022-08-01T14:06:52;2.90;;;1.08;;
42906;SDS011;28552;51.146;6.576;2022-08-01T14:09:53;4.25;;;0.90;;
42906;SDS011;28552;51.146;6.576;2022-08-01T14:12:55;2.13;;;0.88;;
42906;SDS011;28552;51.146;6.576;2022-08-01T14:15:57;2.63;;;0.80;;
42906;SDS011;28552;51.146;6.576;2022-08-01T14:18:58;3.97;;;0.88;;
42906;SDS011;28552;51.146;6.576;2022-08-01T14:21:58;1.83;;;0.75;;
42906;SDS011;28552;51.146;6.576;2022-08-01T14:24:59;2.85;;;1.13;;
42906;SDS011;28552;51.146;6.576;2022-08-01T14:27:59;1.88;;;0.80;;
42906;SDS011;28552;51.146;6.576;2022-08-01T14:31:00;2.72;;;1.08;;
42906;SDS011;28552;51.146;6.576;2022-08-01T14:34:00;2.88;;;0.80;;
42906;SDS011;28552;51.146;6.576;2022-08-01T14:37:01;3.28;;;0.88;;
42906;SDS011;28552;51.146;6.576;2022-08-01T14:40:02;1.60;;;0.77;;
42906;SDS011;28552;51.146;6.576;2022-08-01T14:43:05;1.20;;;0.60;;
42906;SDS011;28552;51.146;6.576;2022-08-01T14:46:06;2.63;;;1.00;;
42906;SDS011;28552;51.146;6.576;2022-08-01T14:49:09;2.13;;;1.02;;
42906;SDS011;28552;51.146;6.576;2022-08-01T14:52:10;1.67;;;0.80;;
42906;SDS011;28552;51.146;6.576;2022-08-01T14:55:11;2.38;;;1.05;;
42906;SDS011;28552;51.146;6.576;2022-08-01T14:58:12;2.28;;;0.90;;
42906;SDS011;28552;51.146;6.576;2022-08-01T15:01:13;1.83;;;0.82;;
42906;SDS011;28552;51.146;6.576;2022-08-01T15:04:13;1.77;;;0.90;;
42906;SDS011;28552;51.146;6.576;2022-08-01T15:07:14;2.75;;;0.90;;
42906;SDS011;28552;51.146;6.576;2022-08-01T15:10:15;1.80;;;0.88;;
42906;SDS011;28552;51.146;6.576;2022-08-01T15:13:16;2.13;;;1.00;;
42906;SDS011;28552;51.146;6.576;2022-08-01T15:16:16;2.33;;;0.85;;
42906;SDS011;28552;51.146;6.576;2022-08-01T15:19:17;4.05;;;0.88;;
42906;SDS011;28552;51.146;6.576;2022-08-01T15:22:18;1.83;;;0.75;;
42906;SDS011;28552;51.146;6.576;2022-08-01T15:25:19;5.82;;;1.45;;
42906;SDS011;28552;51.146;6.576;2022-08-01T15:28:20;1.80;;;0.90;;
42906;SDS011;28552;51.146;6.576;2022-08-01T15:31:20;2.33;;;0.95;;
42906;SDS011;28552;51.146;6.576;2022-08-01T15:34:21;3.13;;;1.10;;
42906;SDS011;28552;51.146;6.576;2022-08-01T15:37:22;4.90;;;1.20;;
42906;SDS011;28552;51.146;6.576;2022-08-01T15:40:23;1.90;;;0.98;;
42906;SDS011;28552;51.146;6.576;2022-08-01T15:43:24;3.50;;;1.08;;
42906;SDS011;28552;51.146;6.576;2022-08-01T15:46:25;1.30;;;0.80;;
42906;SDS011;28552;51.146;6.576;2022-08-01T15:49:25;1.98;;;0.80;;
42906;SDS011;28552;51.146;6.576;2022-08-01T15:52:27;2.97;;;0.90;;
42906;SDS011;28552;51.146;6.576;2022-08-01T15:55:28;1.75;;;0.80;;
42906;SDS011;28552;51.146;6.576;2022-08-01T15:58:28;1.90;;;0.80;;
42906;SDS011;28552;51.146;6.576;2022-08-01T16:01:29;2.05;;;0.90;;
42906;SDS011;28552;51.146;6.576;2022-08-01T16:04:30;2.70;;;0.98;;
42906;SDS011;28552;51.146;6.576;2022-08-01T16:07:30;6.30;;;1.17;;
42906;SDS011;28552;51.146;6.576;2022-08-01T16:10:31;2.38;;;1.00;;
42906;SDS011;28552;51.146;6.576;2022-08-01T16:13:31;1.88;;;0.82;;
42906;SDS011;28552;51.146;6.576;2022-08-01T16:16:32;2.10;;;1.10;;
42906;SDS011;28552;51.146;6.576;2022-08-01T16:19:32;1.60;;;0.82;;
42906;SDS011;28552;51.146;6.576;2022-08-01T16:22:36;1.58;;;0.75;;
42906;SDS011;28552;51.146;6.576;2022-08-01T16:25:37;2.35;;;1.08;;
42906;SDS011;28552;51.146;6.576;2022-08-01T16:28:37;2.58;;;1.00;;
42906;SDS011;28552;51.146;6.576;2022-08-01T16:31:38;2.20;;;0.93;;
42906;SDS011;28552;51.146;6.576;2022-08-01T16:34:39;2.42;;;0.98;;
42906;SDS011;28552;51.146;6.576;2022-08-01T16:37:39;2.08;;;1.15;;
42906;SDS011;28552;51.146;6.576;2022-08-01T16:40:40;2.33;;;0.90;;
42906;SDS011;28552;51.146;6.576;2022-08-01T16:43:42;1.65;;;0.80;;
42906;SDS011;28552;51.146;6.576;2022-08-01T16:46:43;2.03;;;1.00;;
42906;SDS011;28552;51.146;6.576;2022-08-01T16:49:43;3.90;;;0.82;;
42906;SDS011;28552;51.146;6.576;2022-08-01T16:52:44;3.70;;;0.80;;
42906;SDS011;28552;51.146;6.576;2022-08-01T16:55:45;1.40;;;0.70;;
42906;SDS011;28552;51.146;6.576;2022-08-01T16:58:46;1.73;;;0.90;;
42906;SDS011;28552;51.146;6.576;2022-08-01T17:01:46;1.10;;;0.60;;
42906;SDS011;28552;51.146;6.576;2022-08-01T17:04:47;1.75;;;0.85;;
42906;SDS011;28552;51.146;6.576;2022-08-01T17:07:47;1.55;;;0.82;;
42906;SDS011;28552;51.146;6.576;2022-08-01T17:10:48;2.78;;;0.63;;
42906;SDS011;28552;51.146;6.576;2022-08-01T17:13:48;2.00;;;1.02;;
42906;SDS011;28552;51.146;6.576;2022-08-01T17:16:49;1.33;;;0.80;;
42906;SDS011;28552;51.146;6.576;2022-08-01T17:19:50;1.85;;;0.70;;
42906;SDS011;28552;51.146;6.576;2022-08-01T17:22:50;1.40;;;0.70;;
42906;SDS011;28552;51.146;6.576;2022-08-01T17:25:51;1.88;;;0.70;;
42906;SDS011;28552;51.146;6.576;2022-08-01T17:28:52;1.75;;;0.80;;
42906;SDS011;28552;51.146;6.576;2022-08-01T17:31:52;2.05;;;0.70;;
42906;SDS011;28552;51.146;6.576;2022-08-01T17:34:53;3.00;;;0.90;;
42906;SDS011;28552;51.146;6.576;2022-08-01T17:37:53;1.75;;;0.70;;
42906;SDS011;28552;51.146;6.576;2022-08-01T17:40:54;2.38;;;0.95;;
42906;SDS011;28552;51.146;6.576;2022-08-01T17:43:54;2.83;;;0.68;;
42906;SDS011;28552;51.146;6.576;2022-08-01T17:46:55;1.75;;;0.90;;
42906;SDS011;28552;51.146;6.576;2022-08-01T17:49:56;1.33;;;0.65;;
42906;SDS011;28552;51.146;6.576;2022-08-01T17:52:56;2.40;;;1.00;;
42906;SDS011;28552;51.146;6.576;2022-08-01T17:55:57;3.33;;;1.27;;
42906;SDS011;28552;51.146;6.576;2022-08-01T17:58:59;1.92;;;0.80;;
42906;SDS011;28552;51.146;6.576;2022-08-01T18:02:00;1.48;;;0.75;;
42906;SDS011;28552;51.146;6.576;2022-08-01T18:05:00;1.95;;;0.75;;
42906;SDS011;28552;51.146;6.576;2022-08-01T18:08:03;1.63;;;0.70;;
42906;SDS011;28552;51.146;6.576;2022-08-01T18:11:06;3.05;;;0.93;;
42906;SDS011;28552;51.146;6.576;2022-08-01T18:14:07;3.05;;;0.93;;
42906;SDS011;28552;51.146;6.576;2022-08-01T18:17:08;2.80;;;0.90;;
42906;SDS011;28552;51.146;6.576;2022-08-01T18:20:09;2.47;;;0.98;;
42906;SDS011;28552;51.146;6.576;2022-08-01T18:23:10;3.38;;;0.77;;
42906;SDS011;28552;51.146;6.576;2022-08-01T18:26:11;2.17;;;0.85;;
42906;SDS011;28552;51.146;6.576;2022-08-01T18:29:12;1.35;;;0.90;;
42906;SDS011;28552;51.146;6.576;2022-08-01T18:32:13;3.33;;;0.80;;
42906;SDS011;28552;51.146;6.576;2022-08-01T18:35:13;4.28;;;1.20;;
42906;SDS011;28552;51.146;6.576;2022-08-01T18:38:14;3.22;;;1.40;;